sensor_id;sensor_type;location;lat;lon;timestamp;pressure;altitude;pressure_sealevel;temperature
41593;BMP180;28026;48.562;14.440;2023-07-13T00:00:26;93724.00;;;26.70
41593;BMP180;28026;48.562;14.440;2023-07-13T00:02:57;93715.00;;;26.60
41593;BMP180;28026;48.562;14.440;2023-07-13T00:05:28;93719.00;;;26.60
41593;BMP180;28026;48.562;14.440;2023-07-13T00:07:59;93719.00;;;26.60
41593;BMP180;28026;48.562;14.440;2023-07-13T00:10:30;93713.00;;;26.70
41593;BMP180;28026;48.562;14.440;2023-07-13T00:13:02;93708.00;;;26.70
41593;BMP180;28026;48.562;14.440;2023-07-13T00:15:33;93699.00;;;26.70
41593;BMP180;28026;48.562;14.440;2023-07-13T00:18:04;93704.00;;;26.70
41593;BMP180;28026;48.562;14.440;2023-07-13T00:20:35;93709.00;;;26.70
41593;BMP180;28026;48.562;14.440;2023-07-13T00:23:05;93704.00;;;26.70
41593;BMP180;28026;48.562;14.440;2023-07-13T00:25:37;93713.00;;;26.60
41593;BMP180;28026;48.562;14.440;2023-07-13T00:28:08;93706.00;;;26.60
41593;BMP180;28026;48.562;14.440;2023-07-13T00:30:39;93704.00;;;26.60
41593;BMP180;28026;48.562;14.440;2023-07-13T00:33:09;93712.00;;;26.50
41593;BMP180;28026;48.562;14.440;2023-07-13T00:35:40;93693.00;;;26.50
41593;BMP180;28026;48.562;14.440;2023-07-13T00:38:14;93695.00;;;26.50
41593;BMP180;28026;48.562;14.440;2023-07-13T00:40:45;93685.00;;;26.50
41593;BMP180;28026;48.562;14.440;2023-07-13T00:43:22;93667.00;;;26.40
41593;BMP180;28026;48.562;14.440;2023-07-13T00:46:20;93671.00;;;26.30
41593;BMP180;28026;48.562;14.440;2023-07-13T00:49:06;93674.00;;;26.20
41593;BMP180;28026;48.562;14.440;2023-07-13T00:51:48;93670.00;;;26.20
41593;BMP180;28026;48.562;14.440;2023-07-13T00:54:30;93650.00;;;26.20
41593;BMP180;28026;48.562;14.440;2023-07-13T00:57:12;93648.00;;;26.10
41593;BMP180;28026;48.562;14.440;2023-07-13T00:59:53;93648.00;;;26.10
41593;BMP180;28026;48.562;14.440;2023-07-13T01:02:28;93676.00;;;26.00
41593;BMP180;28026;48.562;14.440;2023-07-13T01:04:59;93680.00;;;25.90
41593;BMP180;28026;48.562;14.440;2023-07-13T01:07:32;93670.00;;;25.80
41593;BMP180;28026;48.562;14.440;2023-07-13T01:10:04;93690.00;;;25.80
41593;BMP180;28026;48.562;14.440;2023-07-13T01:12:35;93710.00;;;25.70
41593;BMP180;28026;48.562;14.440;2023-07-13T01:15:41;93725.00;;;25.70
41593;BMP180;28026;48.562;14.440;2023-07-13T01:18:32;93744.00;;;25.50
41593;BMP180;28026;48.562;14.440;2023-07-13T01:21:04;93746.00;;;25.30
41593;BMP180;28026;48.562;14.440;2023-07-13T01:23:35;93744.00;;;25.10
41593;BMP180;28026;48.562;14.440;2023-07-13T01:26:06;93748.00;;;25.10
41593;BMP180;28026;48.562;14.440;2023-07-13T01:28:38;93737.00;;;25.10
41593;BMP180;28026;48.562;14.440;2023-07-13T01:31:10;93752.00;;;25.10
41593;BMP180;28026;48.562;14.440;2023-07-13T01:33:41;93747.00;;;25.10
41593;BMP180;28026;48.562;14.440;2023-07-13T01:36:13;93733.00;;;25.10
41593;BMP180;28026;48.562;14.440;2023-07-13T01:38:44;93741.00;;;25.10
41593;BMP180;28026;48.562;14.440;2023-07-13T01:41:15;93731.00;;;25.10
41593;BMP180;28026;48.562;14.440;2023-07-13T01:43:46;93734.00;;;25.10
41593;BMP180;28026;48.562;14.440;2023-07-13T01:46:17;93727.00;;;25.10
41593;BMP180;28026;48.562;14.440;2023-07-13T01:48:48;93735.00;;;25.10
41593;BMP180;28026;48.562;14.440;2023-07-13T01:51:19;93744.00;;;25.10
41593;BMP180;28026;48.562;14.440;2023-07-13T01:53:51;93732.00;;;25.00
41593;BMP180;28026;48.562;14.440;2023-07-13T01:56:22;93752.00;;;25.00
41593;BMP180;28026;48.562;14.440;2023-07-13T01:58:53;93751.00;;;25.00
41593;BMP180;28026;48.562;14.440;2023-07-13T02:01:24;93758.00;;;25.00
41593;BMP180;28026;48.562;14.440;2023-07-13T02:03:55;93757.00;;;25.00
41593;BMP180;28026;48.562;14.440;2023-07-13T02:06:26;93750.00;;;25.10
41593;BMP180;28026;48.562;14.440;2023-07-13T02:08:58;93754.00;;;25.20
41593;BMP180;28026;48.562;14.440;2023-07-13T02:11:29;93757.00;;;25.20
41593;BMP180;28026;48.562;14.440;2023-07-13T02:14:03;93761.00;;;25.10
41593;BMP180;28026;48.562;14.440;2023-07-13T02:16:34;93754.00;;;25.10
41593;BMP180;28026;48.562;14.440;2023-07-13T02:19:05;93751.00;;;25.20
41593;BMP180;28026;48.562;14.440;2023-07-13T02:21:36;93749.00;;;25.20
41593;BMP180;28026;48.562;14.440;2023-07-13T02:24:07;93750.00;;;25.20
41593;BMP180;28026;48.562;14.440;2023-07-13T02:26:38;93745.00;;;25.20
41593;BMP180;28026;48.562;14.440;2023-07-13T02:29:10;93746.00;;;25.20
41593;BMP180;28026;48.562;14.440;2023-07-13T02:31:41;93732.00;;;25.10
41593;BMP180;28026;48.562;14.440;2023-07-13T02:34:14;93741.00;;;25.20
41593;BMP180;28026;48.562;14.440;2023-07-13T02:36:44;93734.00;;;25.20
41593;BMP180;28026;48.562;14.440;2023-07-13T02:39:16;93741.00;;;25.20
41593;BMP180;28026;48.562;14.440;2023-07-13T02:41:47;93735.00;;;25.10
41593;BMP180;28026;48.562;14.440;2023-07-13T02:44:18;93735.00;;;25.20
41593;BMP180;28026;48.562;14.440;2023-07-13T02:46:48;93731.00;;;25.20
41593;BMP180;28026;48.562;14.440;2023-07-13T02:49:19;93738.00;;;25.20
41593;BMP180;28026;48.562;14.440;2023-07-13T02:51:51;93737.00;;;25.10
41593;BMP180;28026;48.562;14.440;2023-07-13T02:54:22;93741.00;;;25.10
41593;BMP180;28026;48.562;14.440;2023-07-13T02:56:52;93736.00;;;25.20
41593;BMP180;28026;48.562;14.440;2023-07-13T02:59:23;93736.00;;;25.20
41593;BMP180;28026;48.562;14.440;2023-07-13T03:01:54;93736.00;;;25.20
41593;BMP180;28026;48.562;14.440;2023-07-13T03:04:25;93727.00;;;25.20
41593;BMP180;28026;48.562;14.440;2023-07-13T03:06:56;93730.00;;;25.10
41593;BMP180;28026;48.562;14.440;2023-07-13T03:09:28;93733.00;;;25.10
41593;BMP180;28026;48.562;14.440;2023-07-13T03:11:59;93725.00;;;25.10
41593;BMP180;28026;48.562;14.440;2023-07-13T03:14:30;93741.00;;;25.10
41593;BMP180;28026;48.562;14.440;2023-07-13T03:17:01;93734.00;;;25.10
41593;BMP180;28026;48.562;14.440;2023-07-13T03:19:32;93736.00;;;25.10
41593;BMP180;28026;48.562;14.440;2023-07-13T03:22:03;93722.00;;;25.10
41593;BMP180;28026;48.562;14.440;2023-07-13T03:24:34;93733.00;;;25.10
41593;BMP180;28026;48.562;14.440;2023-07-13T03:27:07;93736.00;;;25.00
41593;BMP180;28026;48.562;14.440;2023-07-13T03:29:38;93725.00;;;25.00
41593;BMP180;28026;48.562;14.440;2023-07-13T03:32:09;93735.00;;;25.10
41593;BMP180;28026;48.562;14.440;2023-07-13T03:34:40;93734.00;;;25.10
41593;BMP180;28026;48.562;14.440;2023-07-13T03:37:11;93726.00;;;25.20
41593;BMP180;28026;48.562;14.440;2023-07-13T03:39:42;93729.00;;;25.30
41593;BMP180;28026;48.562;14.440;2023-07-13T03:42:13;93744.00;;;25.40
41593;BMP180;28026;48.562;14.440;2023-07-13T03:44:44;93732.00;;;25.40
41593;BMP180;28026;48.562;14.440;2023-07-13T03:47:21;93734.00;;;25.40
41593;BMP180;28026;48.562;14.440;2023-07-13T03:49:52;93720.00;;;25.30
41593;BMP180;28026;48.562;14.440;2023-07-13T03:52:23;93722.00;;;25.30
41593;BMP180;28026;48.562;14.440;2023-07-13T03:54:54;93726.00;;;25.30
41593;BMP180;28026;48.562;14.440;2023-07-13T03:57:26;93735.00;;;25.40
41593;BMP180;28026;48.562;14.440;2023-07-13T03:59:57;93732.00;;;25.30
41593;BMP180;28026;48.562;14.440;2023-07-13T04:02:27;93743.00;;;25.30
41593;BMP180;28026;48.562;14.440;2023-07-13T04:04:58;93740.00;;;25.30
41593;BMP180;28026;48.562;14.440;2023-07-13T04:07:29;93738.00;;;25.20
41593;BMP180;28026;48.562;14.440;2023-07-13T04:10:00;93727.00;;;25.10
41593;BMP180;28026;48.562;14.440;2023-07-13T04:12:31;93733.00;;;25.10
41593;BMP180;28026;48.562;14.440;2023-07-13T04:15:02;93730.00;;;25.10
41593;BMP180;28026;48.562;14.440;2023-07-13T04:17:33;93742.00;;;25.10
41593;BMP180;28026;48.562;14.440;2023-07-13T04:20:04;93741.00;;;25.00
41593;BMP180;28026;48.562;14.440;2023-07-13T04:22:36;93728.00;;;25.00
41593;BMP180;28026;48.562;14.440;2023-07-13T04:25:07;93736.00;;;25.00
41593;BMP180;28026;48.562;14.440;2023-07-13T04:27:38;93745.00;;;25.00
41593;BMP180;28026;48.562;14.440;2023-07-13T04:30:10;93740.00;;;25.00
41593;BMP180;28026;48.562;14.440;2023-07-13T04:32:41;93733.00;;;25.10
41593;BMP180;28026;48.562;14.440;2023-07-13T04:35:12;93737.00;;;25.20
41593;BMP180;28026;48.562;14.440;2023-07-13T04:37:44;93741.00;;;25.30
41593;BMP180;28026;48.562;14.440;2023-07-13T04:40:19;93743.00;;;25.30
41593;BMP180;28026;48.562;14.440;2023-07-13T04:42:50;93745.00;;;25.30
41593;BMP180;28026;48.562;14.440;2023-07-13T04:45:22;93747.00;;;25.20
41593;BMP180;28026;48.562;14.440;2023-07-13T04:47:54;93743.00;;;25.20
41593;BMP180;28026;48.562;14.440;2023-07-13T04:50:25;93748.00;;;25.10
41593;BMP180;28026;48.562;14.440;2023-07-13T04:52:56;93744.00;;;25.00
41593;BMP180;28026;48.562;14.440;2023-07-13T04:55:27;93739.00;;;25.00
41593;BMP180;28026;48.562;14.440;2023-07-13T04:58:01;93742.00;;;25.00
41593;BMP180;28026;48.562;14.440;2023-07-13T05:00:33;93745.00;;;25.10
41593;BMP180;28026;48.562;14.440;2023-07-13T05:03:04;93749.00;;;25.10
41593;BMP180;28026;48.562;14.440;2023-07-13T05:05:35;93748.00;;;25.10
41593;BMP180;28026;48.562;14.440;2023-07-13T05:08:06;93742.00;;;25.10
41593;BMP180;28026;48.562;14.440;2023-07-13T05:10:37;93736.00;;;25.00
41593;BMP180;28026;48.562;14.440;2023-07-13T05:13:08;93745.00;;;25.00
41593;BMP180;28026;48.562;14.440;2023-07-13T05:15:39;93747.00;;;25.00
41593;BMP180;28026;48.562;14.440;2023-07-13T05:18:10;93731.00;;;25.00
41593;BMP180;28026;48.562;14.440;2023-07-13T05:20:41;93747.00;;;25.00
41593;BMP180;28026;48.562;14.440;2023-07-13T05:23:12;93742.00;;;25.00
41593;BMP180;28026;48.562;14.440;2023-07-13T05:25:43;93728.00;;;25.00
41593;BMP180;28026;48.562;14.440;2023-07-13T05:28:13;93740.00;;;25.00
41593;BMP180;28026;48.562;14.440;2023-07-13T05:30:49;93743.00;;;25.00
41593;BMP180;28026;48.562;14.440;2023-07-13T05:33:21;93749.00;;;25.00
41593;BMP180;28026;48.562;14.440;2023-07-13T05:35:52;93742.00;;;25.20
41593;BMP180;28026;48.562;14.440;2023-07-13T05:38:23;93735.00;;;25.40
41593;BMP180;28026;48.562;14.440;2023-07-13T05:40:56;93732.00;;;25.50
41593;BMP180;28026;48.562;14.440;2023-07-13T05:43:27;93739.00;;;25.60
41593;BMP180;28026;48.562;14.440;2023-07-13T05:45:58;93734.00;;;25.60
41593;BMP180;28026;48.562;14.440;2023-07-13T05:48:29;93741.00;;;25.70
41593;BMP180;28026;48.562;14.440;2023-07-13T05:51:01;93753.00;;;25.80
41593;BMP180;28026;48.562;14.440;2023-07-13T05:53:34;93764.00;;;25.90
41593;BMP180;28026;48.562;14.440;2023-07-13T05:56:06;93754.00;;;25.90
41593;BMP180;28026;48.562;14.440;2023-07-13T05:58:38;93758.00;;;25.90
41593;BMP180;28026;48.562;14.440;2023-07-13T06:01:12;93758.00;;;25.90
41593;BMP180;28026;48.562;14.440;2023-07-13T06:03:46;93763.00;;;25.90
41593;BMP180;28026;48.562;14.440;2023-07-13T06:06:17;93755.00;;;25.90
41593;BMP180;28026;48.562;14.440;2023-07-13T06:08:48;93755.00;;;25.90
41593;BMP180;28026;48.562;14.440;2023-07-13T06:11:25;93761.00;;;25.90
41593;BMP180;28026;48.562;14.440;2023-07-13T06:13:58;93751.00;;;25.90
41593;BMP180;28026;48.562;14.440;2023-07-13T06:16:28;93752.00;;;25.90
41593;BMP180;28026;48.562;14.440;2023-07-13T06:18:59;93758.00;;;26.00
41593;BMP180;28026;48.562;14.440;2023-07-13T06:21:30;93766.00;;;26.00
41593;BMP180;28026;48.562;14.440;2023-07-13T06:24:01;93754.00;;;26.00
41593;BMP180;28026;48.562;14.440;2023-07-13T06:26:32;93763.00;;;26.10
41593;BMP180;28026;48.562;14.440;2023-07-13T06:29:03;93760.00;;;26.10
41593;BMP180;28026;48.562;14.440;2023-07-13T06:31:34;93765.00;;;26.10
41593;BMP180;28026;48.562;14.440;2023-07-13T06:34:05;93772.00;;;26.20
41593;BMP180;28026;48.562;14.440;2023-07-13T06:36:36;93767.00;;;26.20
41593;BMP180;28026;48.562;14.440;2023-07-13T06:39:08;93758.00;;;26.30
41593;BMP180;28026;48.562;14.440;2023-07-13T06:41:39;93773.00;;;26.30
41593;BMP180;28026;48.562;14.440;2023-07-13T06:44:10;93772.00;;;26.40
41593;BMP180;28026;48.562;14.440;2023-07-13T06:46:41;93777.00;;;26.40
41593;BMP180;28026;48.562;14.440;2023-07-13T06:49:12;93776.00;;;26.50
41593;BMP180;28026;48.562;14.440;2023-07-13T06:51:43;93775.00;;;26.60
41593;BMP180;28026;48.562;14.440;2023-07-13T06:54:14;93779.00;;;26.70
41593;BMP180;28026;48.562;14.440;2023-07-13T06:56:45;93777.00;;;26.70
41593;BMP180;28026;48.562;14.440;2023-07-13T06:59:16;93780.00;;;26.70
41593;BMP180;28026;48.562;14.440;2023-07-13T07:01:47;93790.00;;;26.70
41593;BMP180;28026;48.562;14.440;2023-07-13T07:04:17;93799.00;;;26.80
41593;BMP180;28026;48.562;14.440;2023-07-13T07:06:48;93789.00;;;26.80
41593;BMP180;28026;48.562;14.440;2023-07-13T07:09:19;93798.00;;;27.00
41593;BMP180;28026;48.562;14.440;2023-07-13T07:11:50;93798.00;;;27.10
41593;BMP180;28026;48.562;14.440;2023-07-13T07:14:21;93803.00;;;27.20
41593;BMP180;28026;48.562;14.440;2023-07-13T07:16:52;93799.00;;;27.30
41593;BMP180;28026;48.562;14.440;2023-07-13T07:19:23;93792.00;;;27.40
41593;BMP180;28026;48.562;14.440;2023-07-13T07:21:53;93783.00;;;27.40
41593;BMP180;28026;48.562;14.440;2023-07-13T07:24:24;93798.00;;;27.50
41593;BMP180;28026;48.562;14.440;2023-07-13T07:26:55;93801.00;;;27.60
41593;BMP180;28026;48.562;14.440;2023-07-13T07:29:26;93791.00;;;27.60
41593;BMP180;28026;48.562;14.440;2023-07-13T07:31:59;93794.00;;;27.60
41593;BMP180;28026;48.562;14.440;2023-07-13T07:34:30;93802.00;;;27.70
41593;BMP180;28026;48.562;14.440;2023-07-13T07:37:03;93797.00;;;27.60
41593;BMP180;28026;48.562;14.440;2023-07-13T07:39:34;93807.00;;;27.70
41593;BMP180;28026;48.562;14.440;2023-07-13T07:42:06;93806.00;;;27.80
41593;BMP180;28026;48.562;14.440;2023-07-13T07:44:37;93809.00;;;28.10
41593;BMP180;28026;48.562;14.440;2023-07-13T07:47:09;93802.00;;;28.20
41593;BMP180;28026;48.562;14.440;2023-07-13T07:49:40;93818.00;;;28.30
41593;BMP180;28026;48.562;14.440;2023-07-13T07:52:11;93813.00;;;28.40
41593;BMP180;28026;48.562;14.440;2023-07-13T07:54:41;93813.00;;;28.40
41593;BMP180;28026;48.562;14.440;2023-07-13T07:57:12;93818.00;;;28.50
41593;BMP180;28026;48.562;14.440;2023-07-13T07:59:43;93805.00;;;28.40
41593;BMP180;28026;48.562;14.440;2023-07-13T08:02:14;93809.00;;;28.40
41593;BMP180;28026;48.562;14.440;2023-07-13T08:04:45;93823.00;;;28.60
41593;BMP180;28026;48.562;14.440;2023-07-13T08:07:16;93821.00;;;28.50
41593;BMP180;28026;48.562;14.440;2023-07-13T08:09:46;93828.00;;;28.50
41593;BMP180;28026;48.562;14.440;2023-07-13T08:12:17;93828.00;;;28.30
41593;BMP180;28026;48.562;14.440;2023-07-13T08:14:52;93834.00;;;28.30
41593;BMP180;28026;48.562;14.440;2023-07-13T08:17:28;93832.00;;;28.30
41593;BMP180;28026;48.562;14.440;2023-07-13T08:19:59;93841.00;;;28.30
41593;BMP180;28026;48.562;14.440;2023-07-13T08:22:30;93848.00;;;28.30
41593;BMP180;28026;48.562;14.440;2023-07-13T08:25:01;93846.00;;;28.30
41593;BMP180;28026;48.562;14.440;2023-07-13T08:27:33;93842.00;;;28.20
41593;BMP180;28026;48.562;14.440;2023-07-13T08:30:06;93853.00;;;28.20
41593;BMP180;28026;48.562;14.440;2023-07-13T08:32:38;93855.00;;;28.10
41593;BMP180;28026;48.562;14.440;2023-07-13T08:35:09;93852.00;;;28.10
41593;BMP180;28026;48.562;14.440;2023-07-13T08:37:40;93861.00;;;28.10
41593;BMP180;28026;48.562;14.440;2023-07-13T08:40:12;93861.00;;;28.10
41593;BMP180;28026;48.562;14.440;2023-07-13T08:43:13;93870.00;;;28.00
41593;BMP180;28026;48.562;14.440;2023-07-13T08:45:57;93878.00;;;28.00
41593;BMP180;28026;48.562;14.440;2023-07-13T08:48:58;93887.00;;;27.90
41593;BMP180;28026;48.562;14.440;2023-07-13T08:51:43;93890.00;;;27.70
41593;BMP180;28026;48.562;14.440;2023-07-13T08:54:29;93890.00;;;27.70
41593;BMP180;28026;48.562;14.440;2023-07-13T08:57:19;93905.00;;;27.70
41593;BMP180;28026;48.562;14.440;2023-07-13T08:59:52;93897.00;;;27.60
41593;BMP180;28026;48.562;14.440;2023-07-13T09:02:45;93893.00;;;27.70
41593;BMP180;28026;48.562;14.440;2023-07-13T09:05:38;93888.00;;;27.80
41593;BMP180;28026;48.562;14.440;2023-07-13T09:08:38;93896.00;;;27.80
41593;BMP180;28026;48.562;14.440;2023-07-13T09:11:49;93897.00;;;27.90
41593;BMP180;28026;48.562;14.440;2023-07-13T09:14:48;93897.00;;;27.90
41593;BMP180;28026;48.562;14.440;2023-07-13T09:17:27;93899.00;;;28.00
41593;BMP180;28026;48.562;14.440;2023-07-13T09:20:34;93898.00;;;28.00
41593;BMP180;28026;48.562;14.440;2023-07-13T09:23:19;93892.00;;;28.00
41593;BMP180;28026;48.562;14.440;2023-07-13T09:26:00;93884.00;;;28.10
41593;BMP180;28026;48.562;14.440;2023-07-13T09:28:41;93888.00;;;28.20
41593;BMP180;28026;48.562;14.440;2023-07-13T09:31:37;93896.00;;;28.40
41593;BMP180;28026;48.562;14.440;2023-07-13T09:34:13;93894.00;;;28.40
41593;BMP180;28026;48.562;14.440;2023-07-13T09:36:44;93891.00;;;28.40
41593;BMP180;28026;48.562;14.440;2023-07-13T09:39:30;93900.00;;;28.30
41593;BMP180;28026;48.562;14.440;2023-07-13T09:42:17;93901.00;;;28.20
41593;BMP180;28026;48.562;14.440;2023-07-13T09:45:01;93906.00;;;28.20
41593;BMP180;28026;48.562;14.440;2023-07-13T09:47:39;93909.00;;;28.20
41593;BMP180;28026;48.562;14.440;2023-07-13T09:50:16;93903.00;;;28.20
41593;BMP180;28026;48.562;14.440;2023-07-13T09:52:49;93916.00;;;28.30
41593;BMP180;28026;48.562;14.440;2023-07-13T09:55:32;93914.00;;;28.30
41593;BMP180;28026;48.562;14.440;2023-07-13T09:58:19;93914.00;;;28.40
41593;BMP180;28026;48.562;14.440;2023-07-13T10:01:02;93916.00;;;28.40
41593;BMP180;28026;48.562;14.440;2023-07-13T10:03:36;93916.00;;;28.40
41593;BMP180;28026;48.562;14.440;2023-07-13T10:06:18;93919.00;;;28.40
41593;BMP180;28026;48.562;14.440;2023-07-13T10:08:55;93920.00;;;28.50
41593;BMP180;28026;48.562;14.440;2023-07-13T10:11:29;93924.00;;;28.60
41593;BMP180;28026;48.562;14.440;2023-07-13T10:14:10;93923.00;;;28.70
41593;BMP180;28026;48.562;14.440;2023-07-13T10:16:48;93923.00;;;28.80
41593;BMP180;28026;48.562;14.440;2023-07-13T10:19:32;93916.00;;;28.80
41593;BMP180;28026;48.562;14.440;2023-07-13T10:22:24;93925.00;;;29.00
41593;BMP180;28026;48.562;14.440;2023-07-13T10:25:00;93930.00;;;29.40
41593;BMP180;28026;48.562;14.440;2023-07-13T10:27:36;93926.00;;;29.80
41593;BMP180;28026;48.562;14.440;2023-07-13T10:30:19;93911.00;;;30.10
41593;BMP180;28026;48.562;14.440;2023-07-13T10:33:02;93920.00;;;30.40
41593;BMP180;28026;48.562;14.440;2023-07-13T10:35:37;93926.00;;;30.60
41593;BMP180;28026;48.562;14.440;2023-07-13T10:38:22;93914.00;;;30.60
41593;BMP180;28026;48.562;14.440;2023-07-13T10:41:12;93910.00;;;30.70
41593;BMP180;28026;48.562;14.440;2023-07-13T10:43:51;93916.00;;;30.60
41593;BMP180;28026;48.562;14.440;2023-07-13T10:46:28;93912.00;;;30.80
41593;BMP180;28026;48.562;14.440;2023-07-13T10:49:05;93908.00;;;30.80
41593;BMP180;28026;48.562;14.440;2023-07-13T10:51:39;93922.00;;;30.70
41593;BMP180;28026;48.562;14.440;2023-07-13T10:57:20;93924.00;;;30.50
41593;BMP180;28026;48.562;14.440;2023-07-13T11:00:17;93924.00;;;30.30
41593;BMP180;28026;48.562;14.440;2023-07-13T11:03:00;93925.00;;;30.30
41593;BMP180;28026;48.562;14.440;2023-07-13T11:05:33;93921.00;;;30.40
41593;BMP180;28026;48.562;14.440;2023-07-13T11:11:02;93920.00;;;30.70
41593;BMP180;28026;48.562;14.440;2023-07-13T11:22:11;93924.00;;;30.70
41593;BMP180;28026;48.562;14.440;2023-07-13T11:24:58;93931.00;;;30.70
41593;BMP180;28026;48.562;14.440;2023-07-13T11:27:39;93926.00;;;30.50
41593;BMP180;28026;48.562;14.440;2023-07-13T11:38:38;93919.00;;;30.50
41593;BMP180;28026;48.562;14.440;2023-07-13T11:41:27;93904.00;;;30.50
41593;BMP180;28026;48.562;14.440;2023-07-13T11:46:58;93909.00;;;30.60
41593;BMP180;28026;48.562;14.440;2023-07-13T11:49:42;93907.00;;;30.80
41593;BMP180;28026;48.562;14.440;2023-07-13T11:52:18;93912.00;;;31.00
41593;BMP180;28026;48.562;14.440;2023-07-13T11:54:55;93902.00;;;31.20
41593;BMP180;28026;48.562;14.440;2023-07-13T11:57:39;93921.00;;;31.60
41593;BMP180;28026;48.562;14.440;2023-07-13T12:00:22;93920.00;;;31.60
41593;BMP180;28026;48.562;14.440;2023-07-13T12:02:59;93908.00;;;31.40
41593;BMP180;28026;48.562;14.440;2023-07-13T12:05:31;93901.00;;;31.10
41593;BMP180;28026;48.562;14.440;2023-07-13T12:08:10;93905.00;;;31.10
41593;BMP180;28026;48.562;14.440;2023-07-13T12:10:42;93910.00;;;31.10
41593;BMP180;28026;48.562;14.440;2023-07-13T12:13:12;93912.00;;;31.10
41593;BMP180;28026;48.562;14.440;2023-07-13T12:15:46;93923.00;;;31.10
41593;BMP180;28026;48.562;14.440;2023-07-13T12:18:23;93919.00;;;30.90
41593;BMP180;28026;48.562;14.440;2023-07-13T12:21:00;93910.00;;;30.80
41593;BMP180;28026;48.562;14.440;2023-07-13T12:23:34;93905.00;;;30.60
41593;BMP180;28026;48.562;14.440;2023-07-13T12:26:09;93913.00;;;30.60
41593;BMP180;28026;48.562;14.440;2023-07-13T12:28:57;93906.00;;;30.60
41593;BMP180;28026;48.562;14.440;2023-07-13T12:31:39;93916.00;;;30.50
41593;BMP180;28026;48.562;14.440;2023-07-13T12:34:22;93905.00;;;30.30
41593;BMP180;28026;48.562;14.440;2023-07-13T12:37:00;93905.00;;;30.20
41593;BMP180;28026;48.562;14.440;2023-07-13T12:39:47;93910.00;;;30.40
41593;BMP180;28026;48.562;14.440;2023-07-13T12:42:27;93895.00;;;30.50
41593;BMP180;28026;48.562;14.440;2023-07-13T12:45:23;93897.00;;;30.70
41593;BMP180;28026;48.562;14.440;2023-07-13T12:48:06;93891.00;;;30.90
41593;BMP180;28026;48.562;14.440;2023-07-13T12:50:48;93888.00;;;31.10
41593;BMP180;28026;48.562;14.440;2023-07-13T12:53:28;93888.00;;;31.20
41593;BMP180;28026;48.562;14.440;2023-07-13T12:56:03;93894.00;;;31.40
41593;BMP180;28026;48.562;14.440;2023-07-13T12:58:41;93891.00;;;31.50
41593;BMP180;28026;48.562;14.440;2023-07-13T13:01:14;93882.00;;;31.50
41593;BMP180;28026;48.562;14.440;2023-07-13T13:03:51;93878.00;;;31.40
41593;BMP180;28026;48.562;14.440;2023-07-13T13:06:29;93879.00;;;31.20
41593;BMP180;28026;48.562;14.440;2023-07-13T13:09:00;93877.00;;;31.10
41593;BMP180;28026;48.562;14.440;2023-07-13T13:11:32;93874.00;;;31.10
41593;BMP180;28026;48.562;14.440;2023-07-13T13:14:02;93870.00;;;31.00
41593;BMP180;28026;48.562;14.440;2023-07-13T13:16:38;93863.00;;;30.80
41593;BMP180;28026;48.562;14.440;2023-07-13T13:19:27;93850.00;;;30.70
41593;BMP180;28026;48.562;14.440;2023-07-13T13:21:59;93861.00;;;30.60
41593;BMP180;28026;48.562;14.440;2023-07-13T13:24:30;93856.00;;;30.50
41593;BMP180;28026;48.562;14.440;2023-07-13T13:27:01;93837.00;;;30.60
41593;BMP180;28026;48.562;14.440;2023-07-13T13:29:34;93836.00;;;30.90
41593;BMP180;28026;48.562;14.440;2023-07-13T13:32:13;93847.00;;;30.90
41593;BMP180;28026;48.562;14.440;2023-07-13T13:34:45;93847.00;;;30.80
41593;BMP180;28026;48.562;14.440;2023-07-13T13:37:22;93840.00;;;30.80
41593;BMP180;28026;48.562;14.440;2023-07-13T13:39:55;93840.00;;;30.80
41593;BMP180;28026;48.562;14.440;2023-07-13T13:42:26;93844.00;;;30.90
41593;BMP180;28026;48.562;14.440;2023-07-13T13:44:59;93842.00;;;30.90
41593;BMP180;28026;48.562;14.440;2023-07-13T13:47:32;93844.00;;;31.00
41593;BMP180;28026;48.562;14.440;2023-07-13T13:50:25;93853.00;;;31.10
41593;BMP180;28026;48.562;14.440;2023-07-13T13:52:58;93848.00;;;31.10
41593;BMP180;28026;48.562;14.440;2023-07-13T13:55:29;93857.00;;;31.20
41593;BMP180;28026;48.562;14.440;2023-07-13T13:58:00;93860.00;;;31.20
41593;BMP180;28026;48.562;14.440;2023-07-13T14:00:31;93859.00;;;31.10
41593;BMP180;28026;48.562;14.440;2023-07-13T14:03:02;93844.00;;;31.20
41593;BMP180;28026;48.562;14.440;2023-07-13T14:05:33;93854.00;;;31.20
41593;BMP180;28026;48.562;14.440;2023-07-13T14:08:20;93860.00;;;31.30
41593;BMP180;28026;48.562;14.440;2023-07-13T14:10:56;93863.00;;;31.30
41593;BMP180;28026;48.562;14.440;2023-07-13T14:13:36;93861.00;;;31.30
41593;BMP180;28026;48.562;14.440;2023-07-13T14:16:18;93866.00;;;31.20
41593;BMP180;28026;48.562;14.440;2023-07-13T14:18:51;93864.00;;;31.10
41593;BMP180;28026;48.562;14.440;2023-07-13T14:21:22;93869.00;;;31.00
41593;BMP180;28026;48.562;14.440;2023-07-13T14:23:53;93869.00;;;30.90
41593;BMP180;28026;48.562;14.440;2023-07-13T14:26:26;93862.00;;;30.80
41593;BMP180;28026;48.562;14.440;2023-07-13T14:28:58;93869.00;;;30.70
41593;BMP180;28026;48.562;14.440;2023-07-13T14:31:29;93868.00;;;30.80
41593;BMP180;28026;48.562;14.440;2023-07-13T14:34:00;93871.00;;;30.90
41593;BMP180;28026;48.562;14.440;2023-07-13T14:36:33;93869.00;;;31.00
41593;BMP180;28026;48.562;14.440;2023-07-13T14:39:23;93875.00;;;31.00
41593;BMP180;28026;48.562;14.440;2023-07-13T14:41:56;93883.00;;;30.90
41593;BMP180;28026;48.562;14.440;2023-07-13T14:44:30;93875.00;;;30.90
41593;BMP180;28026;48.562;14.440;2023-07-13T14:47:05;93879.00;;;31.10
41593;BMP180;28026;48.562;14.440;2023-07-13T14:49:43;93871.00;;;31.30
41593;BMP180;28026;48.562;14.440;2023-07-13T14:52:23;93865.00;;;31.50
41593;BMP180;28026;48.562;14.440;2023-07-13T14:54:55;93874.00;;;31.70
41593;BMP180;28026;48.562;14.440;2023-07-13T14:57:26;93855.00;;;31.70
41593;BMP180;28026;48.562;14.440;2023-07-13T14:59:57;93864.00;;;31.60
41593;BMP180;28026;48.562;14.440;2023-07-13T15:02:34;93865.00;;;31.90
41593;BMP180;28026;48.562;14.440;2023-07-13T15:05:29;93862.00;;;32.10